sensor_id;sensor_type;location;lat;lon;timestamp;temperature;humidity
20496;DHT22;10406;54.132;17.968;2022-09-02T00:04:54;8.00;99.90
20496;DHT22;10406;54.132;17.968;2022-09-02T00:10:16;8.00;99.90
20496;DHT22;10406;54.132;17.968;2022-09-02T00:15:44;8.00;99.90
20496;DHT22;10406;54.132;17.968;2022-09-02T00:21:25;7.90;99.90
20496;DHT22;10406;54.132;17.968;2022-09-02T00:26:46;8.00;99.90
20496;DHT22;10406;54.132;17.968;2022-09-02T00:32:26;8.20;99.90
20496;DHT22;10406;54.132;17.968;2022-09-02T00:37:49;8.30;99.90
20496;DHT22;10406;54.132;17.968;2022-09-02T00:43:23;8.10;99.90
20496;DHT22;10406;54.132;17.968;2022-09-02T00:48:55;8.10;99.90
20496;DHT22;10406;54.132;17.968;2022-09-02T00:54:39;8.20;99.90
20496;DHT22;10406;54.132;17.968;2022-09-02T01:00:07;8.10;99.90
20496;DHT22;10406;54.132;17.968;2022-09-02T01:05:35;8.00;99.90
20496;DHT22;10406;54.132;17.968;2022-09-02T01:10:58;7.90;99.90
20496;DHT22;10406;54.132;17.968;2022-09-02T01:16:32;7.90;99.90
20496;DHT22;10406;54.132;17.968;2022-09-02T01:21:56;7.90;99.90
20496;DHT22;10406;54.132;17.968;2022-09-02T01:27:24;7.90;99.90
20496;DHT22;10406;54.132;17.968;2022-09-02T01:32:46;7.90;99.90
20496;DHT22;10406;54.132;17.968;2022-09-02T01:38:26;8.00;99.90
20496;DHT22;10406;54.132;17.968;2022-09-02T01:43:50;8.00;99.90
20496;DHT22;10406;54.132;17.968;2022-09-02T01:49:18;8.00;99.90
20496;DHT22;10406;54.132;17.968;2022-09-02T01:55:25;8.00;99.90
20496;DHT22;10406;54.132;17.968;2022-09-02T02:00:46;8.00;99.90
20496;DHT22;10406;54.132;17.968;2022-09-02T02:06:25;7.90;99.90
20496;DHT22;10406;54.132;17.968;2022-09-02T02:11:51;7.90;99.90
20496;DHT22;10406;54.132;17.968;2022-09-02T02:17:16;7.80;99.90
20496;DHT22;10406;54.132;17.968;2022-09-02T02:22:37;7.80;99.90
20496;DHT22;10406;54.132;17.968;2022-09-02T02:28:04;7.80;99.90
20496;DHT22;10406;54.132;17.968;2022-09-02T02:33:30;7.80;99.90
20496;DHT22;10406;54.132;17.968;2022-09-02T02:38:57;7.80;99.90
20496;DHT22;10406;54.132;17.968;2022-09-02T02:44:50;7.70;99.90
20496;DHT22;10406;54.132;17.968;2022-09-02T02:50:29;7.60;99.90
20496;DHT22;10406;54.132;17.968;2022-09-02T02:55:59;7.70;99.90
20496;DHT22;10406;54.132;17.968;2022-09-02T03:01:25;7.60;99.90
20496;DHT22;10406;54.132;17.968;2022-09-02T03:06:48;7.50;99.90
20496;DHT22;10406;54.132;17.968;2022-09-02T03:12:27;7.50;99.90
20496;DHT22;10406;54.132;17.968;2022-09-02T03:17:49;7.40;99.90
20496;DHT22;10406;54.132;17.968;2022-09-02T03:23:30;7.40;99.90
20496;DHT22;10406;54.132;17.968;2022-09-02T03:28:53;7.30;99.90
20496;DHT22;10406;54.132;17.968;2022-09-02T03:34:34;7.30;99.90
20496;DHT22;10406;54.132;17.968;2022-09-02T03:39:55;7.40;99.90
20496;DHT22;10406;54.132;17.968;2022-09-02T03:45:33;7.30;99.90
20496;DHT22;10406;54.132;17.968;2022-09-02T03:50:56;7.30;99.90
20496;DHT22;10406;54.132;17.968;2022-09-02T03:56:35;7.20;99.90
20496;DHT22;10406;54.132;17.968;2022-09-02T04:01:56;7.00;99.90
20496;DHT22;10406;54.132;17.968;2022-09-02T04:07:19;7.10;99.90
20496;DHT22;10406;54.132;17.968;2022-09-02T04:12:40;7.10;99.90
20496;DHT22;10406;54.132;17.968;2022-09-02T04:18:01;7.10;99.90
20496;DHT22;10406;54.132;17.968;2022-09-02T04:23:29;7.30;99.90
20496;DHT22;10406;54.132;17.968;2022-09-02T04:28:51;7.50;99.90
20496;DHT22;10406;54.132;17.968;2022-09-02T04:34:30;7.60;99.90
20496;DHT22;10406;54.132;17.968;2022-09-02T04:39:53;7.50;99.90
20496;DHT22;10406;54.132;17.968;2022-09-02T04:45:34;7.50;99.90
20496;DHT22;10406;54.132;17.968;2022-09-02T04:51:02;7.40;99.90
20496;DHT22;10406;54.132;17.968;2022-09-02T04:56:42;7.40;99.90
20496;DHT22;10406;54.132;17.968;2022-09-02T05:02:04;7.40;99.90
20496;DHT22;10406;54.132;17.968;2022-09-02T05:07:37;7.60;99.90
20496;DHT22;10406;54.132;17.968;2022-09-02T05:13:05;7.80;99.90
20496;DHT22;10406;54.132;17.968;2022-09-02T05:18:44;8.00;99.90
20496;DHT22;10406;54.132;17.968;2022-09-02T05:24:07;8.20;99.90
20496;DHT22;10406;54.132;17.968;2022-09-02T05:29:52;8.50;99.90
20496;DHT22;10406;54.132;17.968;2022-09-02T05:35:22;8.80;99.90
20496;DHT22;10406;54.132;17.968;2022-09-02T05:40:53;9.10;99.90
20496;DHT22;10406;54.132;17.968;2022-09-02T05:46:30;9.40;99.90
20496;DHT22;10406;54.132;17.968;2022-09-02T05:52:03;9.60;99.90
20496;DHT22;10406;54.132;17.968;2022-09-02T05:57:34;9.90;99.90
20496;DHT22;10406;54.132;17.968;2022-09-02T06:03:02;10.30;99.90
20496;DHT22;10406;54.132;17.968;2022-09-02T06:08:38;10.60;99.90
20496;DHT22;10406;54.132;17.968;2022-09-02T06:14:25;10.90;99.90
20496;DHT22;10406;54.132;17.968;2022-09-02T06:20:03;11.30;99.90
20496;DHT22;10406;54.132;17.968;2022-09-02T06:25:28;11.50;99.90
20496;DHT22;10406;54.132;17.968;2022-09-02T06:30:49;11.80;99.90
20496;DHT22;10406;54.132;17.968;2022-09-02T06:36:15;12.10;99.90
20496;DHT22;10406;54.132;17.968;2022-09-02T06:41:38;12.40;99.90
20496;DHT22;10406;54.132;17.968;2022-09-02T06:47:19;12.70;99.90
20496;DHT22;10406;54.132;17.968;2022-09-02T06:52:42;12.90;99.90
20496;DHT22;10406;54.132;17.968;2022-09-02T06:58:07;13.20;99.90
20496;DHT22;10406;54.132;17.968;2022-09-02T07:03:52;13.40;99.90
20496;DHT22;10406;54.132;17.968;2022-09-02T07:09:32;13.70;99.90
20496;DHT22;10406;54.132;17.968;2022-09-02T07:15:00;14.00;99.90
20496;DHT22;10406;54.132;17.968;2022-09-02T07:20:31;14.20;99.90
20496;DHT22;10406;54.132;17.968;2022-09-02T07:25:53;14.50;99.90
20496;DHT22;10406;54.132;17.968;2022-09-02T07:31:16;14.70;99.90
20496;DHT22;10406;54.132;17.968;2022-09-02T07:36:40;14.80;99.90
20496;DHT22;10406;54.132;17.968;2022-09-02T07:42:21;14.90;99.90
20496;DHT22;10406;54.132;17.968;2022-09-02T07:47:47;15.10;99.90
20496;DHT22;10406;54.132;17.968;2022-09-02T07:53:38;15.20;99.90
20496;DHT22;10406;54.132;17.968;2022-09-02T07:59:01;15.50;99.90
20496;DHT22;10406;54.132;17.968;2022-09-02T08:04:40;15.60;99.90
20496;DHT22;10406;54.132;17.968;2022-09-02T08:10:06;16.10;99.90
20496;DHT22;10406;54.132;17.968;2022-09-02T08:15:40;16.50;99.90
20496;DHT22;10406;54.132;17.968;2022-09-02T08:21:09;16.90;99.90
20496;DHT22;10406;54.132;17.968;2022-09-02T08:27:00;17.50;99.90
20496;DHT22;10406;54.132;17.968;2022-09-02T08:32:53;18.10;99.90
20496;DHT22;10406;54.132;17.968;2022-09-02T08:38:24;17.80;99.90
20496;DHT22;10406;54.132;17.968;2022-09-02T08:44:09;17.20;99.90
20496;DHT22;10406;54.132;17.968;2022-09-02T08:49:53;17.30;99.90
20496;DHT22;10406;54.132;17.968;2022-09-02T08:55:25;17.70;99.90
20496;DHT22;10406;54.132;17.968;2022-09-02T09:01:17;17.70;99.90
20496;DHT22;10406;54.132;17.968;2022-09-02T09:07:04;18.00;99.90
20496;DHT22;10406;54.132;17.968;2022-09-02T09:12:55;18.00;99.90
20496;DHT22;10406;54.132;17.968;2022-09-02T09:18:33;17.80;99.90
20496;DHT22;10406;54.132;17.968;2022-09-02T09:24:07;17.80;99.90
20496;DHT22;10406;54.132;17.968;2022-09-02T09:29:32;18.00;99.90
20496;DHT22;10406;54.132;17.968;2022-09-02T09:35:04;18.40;99.90
20496;DHT22;10406;54.132;17.968;2022-09-02T09:40:29;18.70;99.90
20496;DHT22;10406;54.132;17.968;2022-09-02T09:45:51;18.60;99.90
20496;DHT22;10406;54.132;17.968;2022-09-02T09:51:13;18.40;99.90
20496;DHT22;10406;54.132;17.968;2022-09-02T09:56:37;18.20;99.90
20496;DHT22;10406;54.132;17.968;2022-09-02T10:02:00;18.00;99.90
20496;DHT22;10406;54.132;17.968;2022-09-02T10:07:37;18.00;99.90
20496;DHT22;10406;54.132;17.968;2022-09-02T10:13:21;17.80;99.90
20496;DHT22;10406;54.132;17.968;2022-09-02T10:18:47;17.80;99.90
20496;DHT22;10406;54.132;17.968;2022-09-02T10:24:18;18.40;99.90
20496;DHT22;10406;54.132;17.968;2022-09-02T10:30:01;18.20;99.90
20496;DHT22;10406;54.132;17.968;2022-09-02T10:35:27;17.90;99.90
20496;DHT22;10406;54.132;17.968;2022-09-02T10:41:11;18.10;99.90
20496;DHT22;10406;54.132;17.968;2022-09-02T10:52:58;19.10;99.90
20496;DHT22;10406;54.132;17.968;2022-09-02T10:58:24;19.40;99.90
20496;DHT22;10406;54.132;17.968;2022-09-02T11:04:02;19.90;99.90
20496;DHT22;10406;54.132;17.968;2022-09-02T11:09:36;20.30;99.90
20496;DHT22;10406;54.132;17.968;2022-09-02T11:15:05;20.30;99.90
20496;DHT22;10406;54.132;17.968;2022-09-02T11:20:41;20.20;99.90
20496;DHT22;10406;54.132;17.968;2022-09-02T11:26:10;20.50;99.90
20496;DHT22;10406;54.132;17.968;2022-09-02T11:31:39;20.60;99.90
20496;DHT22;10406;54.132;17.968;2022-09-02T11:37:03;20.40;99.90
20496;DHT22;10406;54.132;17.968;2022-09-02T11:42:35;20.20;99.90
20496;DHT22;10406;54.132;17.968;2022-09-02T11:54:07;19.60;99.90
20496;DHT22;10406;54.132;17.968;2022-09-02T12:06:02;19.20;99.90
20496;DHT22;10406;54.132;17.968;2022-09-02T12:11:49;18.70;99.90
20496;DHT22;10406;54.132;17.968;2022-09-02T12:17:35;18.60;99.90
20496;DHT22;10406;54.132;17.968;2022-09-02T12:23:00;18.50;99.90
20496;DHT22;10406;54.132;17.968;2022-09-02T12:28:23;18.20;99.90
20496;DHT22;10406;54.132;17.968;2022-09-02T12:33:54;18.20;99.90
20496;DHT22;10406;54.132;17.968;2022-09-02T12:39:55;18.20;99.90
20496;DHT22;10406;54.132;17.968;2022-09-02T12:45:26;18.20;99.90
20496;DHT22;10406;54.132;17.968;2022-09-02T12:50:58;18.20;99.90
20496;DHT22;10406;54.132;17.968;2022-09-02T12:56:30;18.30;99.90
20496;DHT22;10406;54.132;17.968;2022-09-02T13:02:17;18.80;99.90
20496;DHT22;10406;54.132;17.968;2022-09-02T13:08:31;19.10;99.90
20496;DHT22;10406;54.132;17.968;2022-09-02T13:14:29;19.60;99.90
20496;DHT22;10406;54.132;17.968;2022-09-02T13:20:41;19.70;99.90
20496;DHT22;10406;54.132;17.968;2022-09-02T13:26:36;20.20;99.90
20496;DHT22;10406;54.132;17.968;2022-09-02T13:32:23;20.40;99.90
20496;DHT22;10406;54.132;17.968;2022-09-02T13:37:53;20.50;99.90
20496;DHT22;10406;54.132;17.968;2022-09-02T13:43:20;20.80;99.90
20496;DHT22;10406;54.132;17.968;2022-09-02T13:48:58;20.90;99.90
20496;DHT22;10406;54.132;17.968;2022-09-02T13:54:35;20.90;99.90
20496;DHT22;10406;54.132;17.968;2022-09-02T13:59:56;20.80;99.90
20496;DHT22;10406;54.132;17.968;2022-09-02T14:05:22;20.60;99.90
20496;DHT22;10406;54.132;17.968;2022-09-02T14:10:56;20.20;99.90
20496;DHT22;10406;54.132;17.968;2022-09-02T14:17:21;19.90;99.90
20496;DHT22;10406;54.132;17.968;2022-09-02T14:23:17;19.50;99.90
20496;DHT22;10406;54.132;17.968;2022-09-02T14:28:50;19.40;99.90
20496;DHT22;10406;54.132;17.968;2022-09-02T14:34:41;19.50;99.90
20496;DHT22;10406;54.132;17.968;2022-09-02T14:40:17;17.40;99.90
20496;DHT22;10406;54.132;17.968;2022-09-02T14:45:44;19.30;99.90
20496;DHT22;10406;54.132;17.968;2022-09-02T14:51:12;19.10;99.90
20496;DHT22;10406;54.132;17.968;2022-09-02T14:56:51;19.00;99.90
20496;DHT22;10406;54.132;17.968;2022-09-02T15:02:34;19.00;99.90
20496;DHT22;10406;54.132;17.968;2022-09-02T15:07:56;18.80;99.90
20496;DHT22;10406;54.132;17.968;2022-09-02T15:13:25;18.70;99.90
20496;DHT22;10406;54.132;17.968;2022-09-02T15:19:17;18.70;99.90
20496;DHT22;10406;54.132;17.968;2022-09-02T15:25:01;18.60;99.90
20496;DHT22;10406;54.132;17.968;2022-09-02T15:30:36;18.40;99.90
20496;DHT22;10406;54.132;17.968;2022-09-02T15:36:06;18.30;99.90
20496;DHT22;10406;54.132;17.968;2022-09-02T15:41:31;18.10;99.90
20496;DHT22;10406;54.132;17.968;2022-09-02T15:46:57;17.90;99.90
20496;DHT22;10406;54.132;17.968;2022-09-02T15:52:19;17.80;99.90
20496;DHT22;10406;54.132;17.968;2022-09-02T15:57:39;17.60;99.90
20496;DHT22;10406;54.132;17.968;2022-09-02T16:03:02;17.50;99.90
20496;DHT22;10406;54.132;17.968;2022-09-02T16:08:25;17.50;99.90
20496;DHT22;10406;54.132;17.968;2022-09-02T16:14:04;17.40;99.90
20496;DHT22;10406;54.132;17.968;2022-09-02T16:19:27;17.30;99.90
20496;DHT22;10406;54.132;17.968;2022-09-02T16:24:48;17.20;99.90
20496;DHT22;10406;54.132;17.968;2022-09-02T16:30:10;17.30;99.90
20496;DHT22;10406;54.132;17.968;2022-09-02T16:35:34;17.20;99.90
20496;DHT22;10406;54.132;17.968;2022-09-02T16:40:56;17.10;99.90
20496;DHT22;10406;54.132;17.968;2022-09-02T16:46:19;17.10;99.90
20496;DHT22;10406;54.132;17.968;2022-09-02T16:51:41;16.90;99.90
20496;DHT22;10406;54.132;17.968;2022-09-02T16:57:03;16.80;99.90
20496;DHT22;10406;54.132;17.968;2022-09-02T17:02:44;16.70;99.90
20496;DHT22;10406;54.132;17.968;2022-09-02T17:08:17;16.40;99.90
20496;DHT22;10406;54.132;17.968;2022-09-02T17:14:19;16.30;99.90
20496;DHT22;10406;54.132;17.968;2022-09-02T17:20:10;16.40;99.90
20496;DHT22;10406;54.132;17.968;2022-09-02T17:25:44;16.20;99.90
20496;DHT22;10406;54.132;17.968;2022-09-02T17:31:13;16.20;99.90
20496;DHT22;10406;54.132;17.968;2022-09-02T17:36:36;16.10;99.90
20496;DHT22;10406;54.132;17.968;2022-09-02T17:41:59;15.90;99.90
20496;DHT22;10406;54.132;17.968;2022-09-02T17:47:24;15.80;99.90
20496;DHT22;10406;54.132;17.968;2022-09-02T17:52:54;15.80;99.90
20496;DHT22;10406;54.132;17.968;2022-09-02T17:58:17;15.70;99.90
20496;DHT22;10406;54.132;17.968;2022-09-02T18:03:52;15.60;99.90
20496;DHT22;10406;54.132;17.968;2022-09-02T18:09:17;15.60;99.90
20496;DHT22;10406;54.132;17.968;2022-09-02T18:14:44;15.50;99.90
20496;DHT22;10406;54.132;17.968;2022-09-02T18:20:12;15.40;99.90
20496;DHT22;10406;54.132;17.968;2022-09-02T18:25:47;15.30;99.90
20496;DHT22;10406;54.132;17.968;2022-09-02T18:31:59;15.10;99.90
20496;DHT22;10406;54.132;17.968;2022-09-02T18:37:30;14.90;99.90
20496;DHT22;10406;54.132;17.968;2022-09-02T18:43:04;14.70;99.90
20496;DHT22;10406;54.132;17.968;2022-09-02T18:48:32;14.60;99.90
20496;DHT22;10406;54.132;17.968;2022-09-02T18:53:57;14.50;99.90
20496;DHT22;10406;54.132;17.968;2022-09-02T18:59:59;14.30;99.90
20496;DHT22;10406;54.132;17.968;2022-09-02T19:11:07;14.00;99.90
20496;DHT22;10406;54.132;17.968;2022-09-02T19:16:38;13.80;99.90
20496;DHT22;10406;54.132;17.968;2022-09-02T19:22:49;13.60;99.90
20496;DHT22;10406;54.132;17.968;2022-09-02T19:28:22;13.40;99.90
20496;DHT22;10406;54.132;17.968;2022-09-02T19:33:43;13.20;99.90
20496;DHT22;10406;54.132;17.968;2022-09-02T19:39:44;13.00;99.90
20496;DHT22;10406;54.132;17.968;2022-09-02T19:45:11;12.90;99.90
20496;DHT22;10406;54.132;17.968;2022-09-02T19:50:33;12.90;99.90
20496;DHT22;10406;54.132;17.968;2022-09-02T19:56:04;12.60;99.90
20496;DHT22;10406;54.132;17.968;2022-09-02T20:01:27;12.50;99.90
20496;DHT22;10406;54.132;17.968;2022-09-02T20:06:49;12.30;99.90
20496;DHT22;10406;54.132;17.968;2022-09-02T20:12:12;12.40;99.90
20496;DHT22;10406;54.132;17.968;2022-09-02T20:17:34;12.40;99.90
20496;DHT22;10406;54.132;17.968;2022-09-02T20:22:57;12.30;99.90
20496;DHT22;10406;54.132;17.968;2022-09-02T20:28:23;12.20;99.90
20496;DHT22;10406;54.132;17.968;2022-09-02T20:34:00;12.00;99.90
20496;DHT22;10406;54.132;17.968;2022-09-02T20:39:43;11.80;99.90
20496;DHT22;10406;54.132;17.968;2022-09-02T20:45:13;11.50;99.90
20496;DHT22;10406;54.132;17.968;2022-09-02T20:50:45;11.30;99.90
20496;DHT22;10406;54.132;17.968;2022-09-02T20:56:16;11.20;99.90
20496;DHT22;10406;54.132;17.968;2022-09-02T21:01:40;11.10;99.90
20496;DHT22;10406;54.132;17.968;2022-09-02T21:07:09;11.20;99.90
20496;DHT22;10406;54.132;17.968;2022-09-02T21:12:37;11.10;99.90
20496;DHT22;10406;54.132;17.968;2022-09-02T21:18:09;11.10;99.90
20496;DHT22;10406;54.132;17.968;2022-09-02T21:23:45;10.80;99.90
20496;DHT22;10406;54.132;17.968;2022-09-02T21:29:16;11.00;99.90
20496;DHT22;10406;54.132;17.968;2022-09-02T21:35:15;10.90;99.90
20496;DHT22;10406;54.132;17.968;2022-09-02T21:40:57;10.80;99.90
20496;DHT22;10406;54.132;17.968;2022-09-02T21:46:27;10.60;99.90
20496;DHT22;10406;54.132;17.968;2022-09-02T21:52:00;10.80;99.90
20496;DHT22;10406;54.132;17.968;2022-09-02T22:03:22;10.50;99.90
20496;DHT22;10406;54.132;17.968;2022-09-02T22:08:54;11.40;99.90
20496;DHT22;10406;54.132;17.968;2022-09-02T22:14:27;10.50;99.90
20496;DHT22;10406;54.132;17.968;2022-09-02T22:19:54;10.50;99.90
20496;DHT22;10406;54.132;17.968;2022-09-02T22:25:17;10.50;99.90
20496;DHT22;10406;54.132;17.968;2022-09-02T22:30:43;10.30;99.90
20496;DHT22;10406;54.132;17.968;2022-09-02T22:36:12;10.30;99.90
20496;DHT22;10406;54.132;17.968;2022-09-02T22:41:50;10.30;99.90
20496;DHT22;10406;54.132;17.968;2022-09-02T22:47:21;10.10;99.90
20496;DHT22;10406;54.132;17.968;2022-09-02T22:53:03;9.80;99.90
20496;DHT22;10406;54.132;17.968;2022-09-02T22:58:54;9.80;99.90
20496;DHT22;10406;54.132;17.968;2022-09-02T23:04:43;9.60;99.90
20496;DHT22;10406;54.132;17.968;2022-09-02T23:10:17;9.70;99.90
20496;DHT22;10406;54.132;17.968;2022-09-02T23:15:46;9.60;99.90
20496;DHT22;10406;54.132;17.968;2022-09-02T23:21:23;9.40;99.90
20496;DHT22;10406;54.132;17.968;2022-09-02T23:26:55;9.40;99.90
20496;DHT22;10406;54.132;17.968;2022-09-02T23:32:38;9.50;99.90
20496;DHT22;10406;54.132;17.968;2022-09-02T23:38:12;9.50;99.90
20496;DHT22;10406;54.132;17.968;2022-09-02T23:43:40;9.30;99.90
20496;DHT22;10406;54.132;17.968;2022-09-02T23:49:06;9.20;99.90
20496;DHT22;10406;54.132;17.968;2022-09-02T23:54:43;9.00;99.90
